Time;durP1;ratioP1;P1;durP2;ratioP2;P2;SDS_P1;SDS_P2;PMS_P1;PMS_P2;Temp;Humidity;BMP_temperature;BMP_pressure;BME280_temperature;BME280_humidity;BME280_pressure;Samples;Min_cycle;Max_cycle;Signal;HPM_P1;HPM_P2
2024/01/15 00:00:03;;;;;;;5.07;0.55;;;2.00;83.10;;;;;;5147821;27;20600;-72
2024/01/15 00:02:37;;;;;;;10.60;1.13;;;2.00;83.00;;;;;;5151258;27;20058;-71
2024/01/15 00:05:05;;;;;;;8.68;1.10;;;2.10;83.00;;;;;;5110799;27;20132;-71
2024/01/15 00:07:32;;;;;;;7.22;1.10;;;2.00;82.80;;;;;;5127778;27;20497;-72
2024/01/15 00:09:59;;;;;;;7.00;0.57;;;2.10;82.30;;;;;;5146413;27;20096;-72
2024/01/15 00:12:26;;;;;;;8.55;0.90;;;2.10;82.20;;;;;;5127666;27;20138;-71
2024/01/15 00:14:53;;;;;;;8.43;1.43;;;2.10;82.30;;;;;;5146258;27;20051;-71
2024/01/15 00:17:21;;;;;;;7.45;0.90;;;2.10;82.60;;;;;;5146255;27;21102;-71
2024/01/15 00:19:48;;;;;;;5.32;0.57;;;2.10;82.80;;;;;;5145511;27;20051;-73
2024/01/15 00:22:15;;;;;;;10.43;1.30;;;2.10;83.00;;;;;;5127093;27;20055;-71
2024/01/15 00:24:42;;;;;;;8.23;1.05;;;2.10;83.20;;;;;;5143565;27;20145;-71
2024/01/15 00:27:09;;;;;;;3.20;0.60;;;2.00;83.20;;;;;;5148281;27;20150;-72
2024/01/15 00:29:36;;;;;;;5.53;0.52;;;2.00;83.40;;;;;;5136019;27;20070;-71
2024/01/15 00:32:03;;;;;;;7.60;0.73;;;2.00;83.40;;;;;;5126341;27;20051;-71
2024/01/15 00:34:31;;;;;;;6.35;0.93;;;2.10;83.50;;;;;;5127511;27;20190;-70
2024/01/15 00:36:58;;;;;;;9.63;1.88;;;2.10;83.60;;;;;;5115200;27;20138;-73
2024/01/15 00:39:25;;;;;;;5.63;0.83;;;2.10;83.60;;;;;;5138750;27;20050;-73
2024/01/15 00:41:52;;;;;;;7.15;0.98;;;2.10;83.70;;;;;;5145230;27;20615;-71
2024/01/15 00:44:19;;;;;;;3.85;0.63;;;2.10;83.70;;;;;;5126761;27;20124;-70
2024/01/15 00:46:47;;;;;;;8.38;0.80;;;2.10;83.80;;;;;;5110829;27;20087;-70
2024/01/15 00:49:14;;;;;;;5.75;0.68;;;2.10;83.80;;;;;;5147356;27;20146;-70
2024/01/15 00:51:43;;;;;;;6.97;1.00;;;2.20;83.70;;;;;;5110411;27;20213;-73
2024/01/15 00:54:10;;;;;;;12.50;1.17;;;2.20;83.70;;;;;;5126958;27;20502;-72
2024/01/15 00:56:37;;;;;;;10.45;1.30;;;2.20;83.70;;;;;;5126563;27;20116;-71
2024/01/15 00:59:04;;;;;;;7.45;0.80;;;2.20;83.90;;;;;;5127581;27;20048;-71
2024/01/15 01:01:31;;;;;;;7.03;1.05;;;2.20;83.80;;;;;;5127007;27;20067;-72
2024/01/15 01:03:58;;;;;;;8.90;1.20;;;2.20;83.90;;;;;;5127690;27;20077;-72
2024/01/15 01:06:25;;;;;;;5.13;0.80;;;2.20;83.70;;;;;;5145733;27;20047;-73
2024/01/15 01:08:54;;;;;;;3.63;0.50;;;2.20;83.70;;;;;;5146029;27;20132;-70
2024/01/15 01:11:20;;;;;;;6.97;1.05;;;2.20;83.70;;;;;;5126741;27;20074;-71
2024/01/15 01:13:47;;;;;;;5.75;0.63;;;2.30;83.70;;;;;;5126755;27;20057;-70
2024/01/15 01:16:14;;;;;;;8.67;0.97;;;2.30;83.70;;;;;;5127333;27;20100;-72
2024/01/15 01:18:41;;;;;;;4.53;0.50;;;2.30;83.70;;;;;;5128537;27;20668;-71
2024/01/15 01:21:08;;;;;;;2.72;0.52;;;2.30;83.70;;;;;;5113503;27;20075;-71
2024/01/15 01:23:35;;;;;;;8.48;0.80;;;2.30;83.80;;;;;;5130981;27;20138;-72
2024/01/15 01:26:03;;;;;;;8.23;1.00;;;2.30;84.00;;;;;;5148477;27;20398;-72
2024/01/15 01:28:30;;;;;;;6.07;0.70;;;2.30;84.20;;;;;;5146046;27;20541;-73
2024/01/15 01:30:57;;;;;;;9.55;1.30;;;2.40;84.50;;;;;;5146332;27;20072;-73
2024/01/15 01:33:25;;;;;;;4.53;0.73;;;2.40;85.10;;;;;;5131895;27;20134;-73
2024/01/15 01:35:52;;;;;;;8.23;1.05;;;2.40;85.60;;;;;;5168368;27;20149;-72
2024/01/15 01:38:20;;;;;;;5.55;0.43;;;2.40;85.80;;;;;;5168646;27;20058;-72
2024/01/15 01:40:47;;;;;;;4.33;0.20;;;2.40;85.90;;;;;;5140539;27;20143;-72
2024/01/15 01:43:15;;;;;;;5.57;0.63;;;2.30;86.10;;;;;;5129780;27;20078;-72
2024/01/15 01:45:42;;;;;;;4.13;0.30;;;2.30;86.30;;;;;;5131305;27;20143;-72
2024/01/15 01:48:09;;;;;;;1.85;0.10;;;2.20;86.50;;;;;;5131299;27;20110;-72
2024/01/15 01:50:36;;;;;;;3.10;0.20;;;2.10;86.70;;;;;;5163700;27;20111;-73
2024/01/15 01:53:04;;;;;;;2.50;0.10;;;2.10;86.90;;;;;;5172699;27;20142;-72
2024/01/15 01:55:34;;;;;;;4.15;0.30;;;2.10;86.80;;;;;;5118090;27;20054;-72
2024/01/15 01:58:02;;;;;;;2.70;0.20;;;2.10;87.00;;;;;;5132609;27;20058;-72
2024/01/15 02:00:33;;;;;;;2.40;0.22;;;2.00;87.20;;;;;;5127215;27;20108;-72
2024/01/15 02:03:00;;;;;;;2.80;0.20;;;2.00;87.40;;;;;;5152506;27;20110;-72
2024/01/15 02:05:28;;;;;;;2.33;0.10;;;2.00;87.70;;;;;;5136281;27;20055;-72
2024/01/15 02:07:55;;;;;;;3.33;0.10;;;2.00;87.70;;;;;;5131622;27;20795;-72
2024/01/15 02:10:22;;;;;;;4.32;0.40;;;2.00;87.80;;;;;;5116382;27;20054;-72
2024/01/15 02:12:49;;;;;;;1.60;0.10;;;1.90;88.00;;;;;;5132256;27;20201;-72
2024/01/15 02:15:16;;;;;;;2.65;0.70;;;2.00;88.00;;;;;;5151352;27;20051;-72
2024/01/15 02:18:03;;;;;;;2.73;0.13;;;2.00;88.10;;;;;;5131512;27;20246;-72
2024/01/15 02:20:30;;;;;;;3.22;0.20;;;1.90;88.40;;;;;;5149834;27;20143;-72
2024/01/15 02:23:08;;;;;;;4.03;0.57;;;1.90;88.40;;;;;;5130400;27;20130;-72
2024/01/15 02:25:36;;;;;;;2.65;0.28;;;1.90;88.50;;;;;;5129996;27;20059;-72
2024/01/15 02:28:03;;;;;;;4.93;0.47;;;2.00;88.50;;;;;;5112048;27;20047;-72
2024/01/15 02:30:32;;;;;;;6.97;0.57;;;2.00;88.50;;;;;;5143161;27;20535;-72
2024/01/15 02:32:59;;;;;;;6.97;0.75;;;2.00;88.50;;;;;;5149624;27;20629;-72
2024/01/15 02:35:26;;;;;;;5.25;0.60;;;2.00;88.40;;;;;;5131586;27;20162;-72
2024/01/15 02:37:53;;;;;;;8.38;1.00;;;2.10;88.30;;;;;;5111788;27;20532;-72
2024/01/15 02:40:21;;;;;;;5.57;0.60;;;2.10;88.20;;;;;;5134269;27;20123;-73
2024/01/15 02:42:48;;;;;;;8.10;0.70;;;2.10;88.10;;;;;;5126880;27;20078;-72
2024/01/15 02:45:15;;;;;;;5.57;0.60;;;2.20;87.90;;;;;;5128125;27;20138;-72
2024/01/15 02:47:42;;;;;;;3.80;0.35;;;2.20;87.70;;;;;;5125251;27;20059;-72
2024/01/15 02:50:09;;;;;;;3.53;0.35;;;2.20;87.50;;;;;;5148001;27;20047;-73
2024/01/15 02:52:36;;;;;;;4.70;0.47;;;2.20;87.50;;;;;;5148718;27;20078;-72
2024/01/15 02:55:04;;;;;;;9.20;0.70;;;2.20;87.20;;;;;;5128222;27;20158;-72
2024/01/15 02:57:32;;;;;;;2.75;0.25;;;2.20;87.20;;;;;;5148232;27;20578;-72
2024/01/15 02:59:59;;;;;;;5.43;0.40;;;2.20;87.20;;;;;;5148480;27;20043;-72
2024/01/15 03:02:26;;;;;;;5.78;0.50;;;2.20;87.20;;;;;;5129436;27;20396;-72
2024/01/15 03:04:53;;;;;;;5.85;0.55;;;2.20;87.20;;;;;;5111013;27;20051;-72
2024/01/15 03:07:20;;;;;;;3.87;0.30;;;2.30;87.20;;;;;;5129253;27;20542;-72
2024/01/15 03:09:47;;;;;;;4.13;0.52;;;2.30;87.20;;;;;;5148071;27;20100;-72
2024/01/15 03:12:14;;;;;;;12.98;1.40;;;2.30;87.30;;;;;;5129454;27;20126;-72
2024/01/15 03:14:42;;;;;;;7.45;0.98;;;2.30;87.50;;;;;;5147830;27;20520;-72
2024/01/15 03:17:11;;;;;;;4.57;0.68;;;2.30;87.60;;;;;;5148774;27;20492;-72
2024/01/15 03:19:38;;;;;;;6.80;0.70;;;2.30;87.60;;;;;;5148384;27;20406;-72
2024/01/15 03:22:07;;;;;;;4.97;0.75;;;2.30;87.60;;;;;;5123327;27;20559;-72
2024/01/15 03:24:34;;;;;;;4.70;0.60;;;2.30;87.60;;;;;;5129582;27;20138;-72
2024/01/15 03:27:01;;;;;;;4.72;0.40;;;2.30;87.50;;;;;;5130067;27;20059;-72
2024/01/15 03:29:28;;;;;;;6.03;0.60;;;2.30;87.30;;;;;;5137095;27;20054;-72
2024/01/15 03:31:56;;;;;;;6.33;0.60;;;2.30;87.20;;;;;;5130562;27;20159;-72
2024/01/15 03:34:24;;;;;;;8.65;0.70;;;2.30;87.10;;;;;;5130043;27;20528;-72
2024/01/15 03:36:51;;;;;;;5.68;0.47;;;2.30;86.90;;;;;;5129878;27;20051;-72
2024/01/15 03:39:17;;;;;;;6.25;0.60;;;2.30;86.80;;;;;;5145155;27;20134;-72
2024/01/15 03:41:44;;;;;;;5.28;0.70;;;2.30;86.90;;;;;;5150910;27;20154;-72
2024/01/15 03:44:11;;;;;;;9.03;1.23;;;2.30;87.10;;;;;;5170013;27;20126;-72
2024/01/15 03:46:38;;;;;;;5.40;0.63;;;2.20;87.40;;;;;;5122060;27;20066;-72
2024/01/15 03:49:07;;;;;;;5.35;0.82;;;2.20;87.50;;;;;;5148702;27;20217;-72
2024/01/15 03:51:34;;;;;;;6.22;0.50;;;2.20;87.60;;;;;;5149153;27;20497;-72
2024/01/15 03:54:01;;;;;;;3.33;0.32;;;2.30;87.50;;;;;;5150233;27;20184;-72
2024/01/15 03:56:28;;;;;;;5.13;0.37;;;2.30;87.50;;;;;;5134741;27;20052;-72
2024/01/15 03:58:55;;;;;;;4.80;0.45;;;2.30;87.40;;;;;;5147811;27;20560;-72
2024/01/15 04:01:21;;;;;;;5.70;0.25;;;2.30;87.40;;;;;;5146960;27;20101;-72
2024/01/15 04:03:48;;;;;;;2.40;0.20;;;2.30;87.40;;;;;;5127961;27;20126;-72
2024/01/15 04:06:17;;;;;;;5.50;0.65;;;2.30;87.30;;;;;;5126925;27;20205;-73
2024/01/15 04:08:44;;;;;;;6.00;0.63;;;2.30;87.40;;;;;;5147349;27;20067;-72
2024/01/15 04:11:11;;;;;;;6.43;0.75;;;2.30;87.30;;;;;;5125697;27;20063;-72
2024/01/15 04:13:38;;;;;;;4.05;0.35;;;2.20;87.40;;;;;;5125942;27;20093;-72
2024/01/15 04:16:05;;;;;;;6.57;0.65;;;2.20;87.40;;;;;;5125511;27;20039;-72
2024/01/15 04:18:32;;;;;;;8.30;0.77;;;2.20;87.50;;;;;;5143774;27;20142;-72
2024/01/15 04:20:59;;;;;;;4.60;0.70;;;2.20;87.60;;;;;;5126384;27;20567;-72
2024/01/15 04:23:27;;;;;;;4.80;0.60;;;2.20;87.70;;;;;;5145153;27;20083;-72
2024/01/15 04:25:54;;;;;;;5.30;0.75;;;2.20;87.90;;;;;;5146600;27;20130;-71
2024/01/15 04:28:21;;;;;;;10.35;0.80;;;2.30;88.00;;;;;;5111514;27;20047;-72
2024/01/15 04:30:48;;;;;;;6.40;0.88;;;2.30;87.70;;;;;;5127771;27;20134;-72
2024/01/15 04:33:15;;;;;;;6.33;0.87;;;2.30;87.50;;;;;;5111327;27;20329;-72
2024/01/15 04:35:42;;;;;;;5.22;0.65;;;2.20;87.40;;;;;;5128422;27;20126;-72
2024/01/15 04:38:09;;;;;;;9.07;0.98;;;2.20;87.50;;;;;;5110972;27;20193;-72
2024/01/15 04:40:37;;;;;;;8.52;0.95;;;2.20;87.50;;;;;;5124235;27;20429;-72
2024/01/15 04:43:05;;;;;;;6.53;0.98;;;2.20;87.50;;;;;;5132204;27;20920;-72
2024/01/15 04:45:31;;;;;;;6.87;0.77;;;2.20;87.30;;;;;;5148260;27;20549;-72
2024/01/15 04:47:58;;;;;;;5.20;0.52;;;2.20;87.40;;;;;;5149368;27;20161;-71
2024/01/15 04:50:26;;;;;;;5.75;0.90;;;2.20;87.40;;;;;;5110633;27;20131;-72
2024/01/15 04:52:52;;;;;;;3.53;0.45;;;2.20;87.30;;;;;;5147624;27;20525;-72
2024/01/15 04:55:19;;;;;;;4.20;0.47;;;2.30;87.20;;;;;;5109455;27;20086;-72
2024/01/15 04:57:48;;;;;;;3.07;0.50;;;2.30;87.20;;;;;;5146980;27;20130;-72
2024/01/15 05:00:15;;;;;;;5.20;0.70;;;2.30;87.00;;;;;;5138397;27;20528;-72
2024/01/15 05:02:42;;;;;;;5.72;0.60;;;2.30;87.00;;;;;;5110831;27;20179;-72
2024/01/15 05:05:09;;;;;;;2.03;0.32;;;2.30;87.10;;;;;;5147012;27;20090;-72
2024/01/15 05:07:36;;;;;;;3.70;0.55;;;2.30;87.10;;;;;;5128540;27;20051;-72
2024/01/15 05:10:04;;;;;;;3.90;0.50;;;2.30;86.90;;;;;;5147652;27;20051;-72
2024/01/15 05:12:30;;;;;;;1.90;0.25;;;2.30;86.90;;;;;;5128091;27;20055;-72
2024/01/15 05:14:59;;;;;;;4.50;0.50;;;2.30;86.70;;;;;;5128364;27;20077;-72
2024/01/15 05:17:26;;;;;;;7.45;0.38;;;2.30;86.60;;;;;;5111407;27;20902;-72
2024/01/15 05:19:53;;;;;;;5.78;0.40;;;2.30;86.60;;;;;;5132423;27;20569;-72
2024/01/15 05:22:21;;;;;;;4.10;0.77;;;2.30;86.50;;;;;;5133560;27;20058;-72
2024/01/15 05:24:48;;;;;;;6.97;0.73;;;2.30;86.40;;;;;;5138161;27;20520;-72
2024/01/15 05:27:16;;;;;;;5.03;0.75;;;2.30;86.40;;;;;;5155702;27;20576;-72
2024/01/15 05:29:44;;;;;;;6.47;0.40;;;2.20;86.60;;;;;;5151715;27;20051;-70
2024/01/15 05:32:12;;;;;;;5.97;0.45;;;2.20;86.70;;;;;;5153421;27;20085;-71
2024/01/15 05:34:39;;;;;;;8.20;1.37;;;2.20;86.80;;;;;;5137735;27;20163;-72
2024/01/15 05:37:06;;;;;;;7.13;0.80;;;2.20;87.00;;;;;;5171941;27;20809;-70
2024/01/15 05:39:33;;;;;;;10.80;1.08;;;2.20;87.20;;;;;;5115811;27;20047;-70
2024/01/15 05:42:00;;;;;;;4.72;0.50;;;2.20;87.20;;;;;;5131037;27;20541;-71
2024/01/15 05:44:27;;;;;;;5.18;0.30;;;2.10;87.20;;;;;;5130807;27;20039;-70
2024/01/15 05:46:54;;;;;;;5.27;0.60;;;2.10;87.40;;;;;;5149002;27;20175;-71
2024/01/15 05:49:23;;;;;;;8.63;0.60;;;2.10;87.50;;;;;;5115224;27;20060;-71
2024/01/15 05:51:51;;;;;;;5.32;0.47;;;2.00;87.50;;;;;;5113223;27;20051;-70
2024/01/15 05:54:19;;;;;;;5.60;0.50;;;2.00;87.50;;;;;;5130198;27;20142;-71
2024/01/15 05:56:46;;;;;;;4.97;0.47;;;2.00;87.50;;;;;;5112766;27;20176;-70
2024/01/15 05:59:13;;;;;;;8.20;0.70;;;1.90;87.90;;;;;;5130499;27;20451;-70
2024/01/15 06:01:40;;;;;;;10.52;0.80;;;1.90;88.00;;;;;;5148042;27;20134;-71
2024/01/15 06:04:07;;;;;;;9.25;0.80;;;2.00;88.00;;;;;;5129737;27;20677;-70
2024/01/15 06:06:36;;;;;;;7.05;0.50;;;2.00;88.20;;;;;;5112354;27;20123;-72
2024/01/15 06:09:05;;;;;;;6.25;0.63;;;2.00;88.20;;;;;;5129505;27;20129;-70
2024/01/15 06:11:32;;;;;;;5.33;0.50;;;1.90;88.20;;;;;;5128489;27;20058;-70
2024/01/15 06:14:00;;;;;;;6.80;0.70;;;2.00;88.20;;;;;;5112600;27;20400;-71
2024/01/15 06:16:27;;;;;;;6.57;0.82;;;2.00;88.20;;;;;;5149497;27;20141;-70
2024/01/15 06:18:54;;;;;;;8.18;0.57;;;2.00;88.20;;;;;;5159012;27;20047;-70
2024/01/15 06:21:21;;;;;;;6.13;0.80;;;2.00;88.20;;;;;;5131011;27;20058;-70
2024/01/15 06:23:49;;;;;;;4.40;0.50;;;2.00;88.00;;;;;;5145233;27;20047;-70
2024/01/15 06:26:16;;;;;;;4.43;0.52;;;2.00;87.80;;;;;;5148384;27;20130;-71
2024/01/15 06:28:43;;;;;;;7.00;1.15;;;2.00;87.80;;;;;;5142339;27;20050;-70
2024/01/15 06:31:10;;;;;;;8.57;0.70;;;2.00;87.70;;;;;;5138666;27;20133;-71
2024/01/15 06:33:37;;;;;;;3.88;0.32;;;1.90;87.80;;;;;;5108902;27;20138;-71
2024/01/15 06:36:06;;;;;;;9.03;0.60;;;2.00;87.80;;;;;;5146126;27;20537;-71
2024/01/15 06:38:33;;;;;;;8.93;0.70;;;2.00;87.70;;;;;;5126446;27;20071;-72
2024/01/15 06:41:01;;;;;;;5.38;0.73;;;1.90;87.80;;;;;;5108981;27;20053;-70
2024/01/15 06:43:28;;;;;;;9.20;1.00;;;1.90;87.80;;;;;;5135565;27;20541;-71
2024/01/15 06:45:55;;;;;;;5.63;0.77;;;1.90;87.80;;;;;;5150971;27;20137;-72
2024/01/15 06:48:22;;;;;;;5.43;0.77;;;1.90;87.90;;;;;;5132260;27;20082;-71
2024/01/15 06:50:49;;;;;;;6.65;1.30;;;1.90;87.90;;;;;;5130865;27;20133;-71
2024/01/15 06:53:16;;;;;;;11.90;0.77;;;1.90;88.00;;;;;;5128495;27;20794;-71
2024/01/15 06:55:43;;;;;;;7.00;0.68;;;1.90;88.00;;;;;;5112989;27;20971;-71
2024/01/15 06:58:11;;;;;;;6.97;0.70;;;1.80;88.00;;;;;;5121731;27;20056;-71
2024/01/15 07:00:41;;;;;;;4.17;0.30;;;1.80;88.10;;;;;;5148264;27;20109;-71
2024/01/15 07:03:08;;;;;;;9.40;0.60;;;1.80;88.10;;;;;;5145093;27;20050;-71
2024/01/15 07:05:38;;;;;;;7.15;1.13;;;1.80;88.20;;;;;;5168229;27;20042;-71
2024/01/15 07:08:05;;;;;;;5.63;0.88;;;1.80;88.20;;;;;;5148196;27;20832;-70
2024/01/15 07:10:32;;;;;;;4.05;0.70;;;1.80;88.20;;;;;;5146521;27;20090;-70
2024/01/15 07:12:59;;;;;;;7.97;1.10;;;1.80;88.40;;;;;;5148820;27;21012;-72
2024/01/15 07:15:27;;;;;;;8.05;0.88;;;1.80;88.40;;;;;;5149030;27;20047;-73
2024/01/15 07:17:54;;;;;;;7.28;0.50;;;1.80;88.50;;;;;;5147030;27;20125;-71
2024/01/15 07:20:21;;;;;;;6.30;0.50;;;1.80;88.30;;;;;;5148903;27;20485;-71
2024/01/15 07:22:48;;;;;;;9.02;0.88;;;1.70;88.40;;;;;;5165129;27;20150;-71
2024/01/15 07:25:16;;;;;;;7.93;0.50;;;1.80;88.50;;;;;;5166139;27;20082;-71
2024/01/15 07:27:46;;;;;;;6.00;0.68;;;1.80;88.30;;;;;;5165323;27;20051;-70
2024/01/15 07:30:14;;;;;;;7.13;0.52;;;1.70;88.20;;;;;;5163688;27;20054;-71
2024/01/15 07:32:42;;;;;;;3.75;0.45;;;1.70;88.30;;;;;;5145759;27;20042;-72
2024/01/15 07:35:10;;;;;;;7.75;0.60;;;1.70;88.40;;;;;;5148109;27;20461;-71
2024/01/15 07:37:37;;;;;;;5.13;0.40;;;1.70;88.50;;;;;;5146828;27;20073;-71
2024/01/15 07:40:06;;;;;;;8.25;0.90;;;1.70;88.60;;;;;;5142970;27;20169;-71
2024/01/15 07:42:33;;;;;;;10.50;0.73;;;1.70;88.70;;;;;;5148344;27;20129;-71
2024/01/15 07:45:00;;;;;;;9.55;0.63;;;1.70;88.80;;;;;;5149514;27;20178;-71
2024/01/15 07:47:27;;;;;;;4.13;0.55;;;1.70;88.70;;;;;;5148840;27;20111;-72
2024/01/15 07:49:55;;;;;;;7.57;0.60;;;1.70;88.80;;;;;;5119275;27;20075;-72
2024/01/15 07:52:22;;;;;;;7.40;0.68;;;1.70;88.80;;;;;;5134579;27;20495;-71
2024/01/15 07:54:49;;;;;;;9.40;0.80;;;1.70;88.70;;;;;;5147614;27;20113;-73
2024/01/15 07:57:16;;;;;;;3.05;0.28;;;1.70;88.90;;;;;;5144208;27;20159;-71
2024/01/15 07:59:43;;;;;;;5.97;0.55;;;1.70;88.70;;;;;;5146079;27;20051;-74
2024/01/15 08:02:11;;;;;;;6.97;0.60;;;1.70;88.70;;;;;;5145325;27;20047;-73
2024/01/15 08:04:38;;;;;;;10.40;1.02;;;1.70;88.70;;;;;;5164570;27;20556;-72
2024/01/15 08:07:06;;;;;;;8.43;1.30;;;1.70;88.80;;;;;;5144882;27;20046;-71
2024/01/15 08:09:33;;;;;;;7.95;0.90;;;1.70;88.70;;;;;;5144147;27;20707;-71
2024/01/15 08:12:01;;;;;;;5.97;0.63;;;1.70;88.80;;;;;;5146344;27;21077;-71
2024/01/15 08:14:28;;;;;;;5.33;0.67;;;1.70;88.70;;;;;;5145549;27;20054;-71
2024/01/15 08:16:55;;;;;;;7.93;1.15;;;1.70;88.50;;;;;;5143394;27;20847;-71
2024/01/15 08:19:22;;;;;;;5.78;0.38;;;1.70;88.30;;;;;;5162373;27;20137;-72
2024/01/15 08:21:49;;;;;;;6.82;0.95;;;1.70;88.10;;;;;;5167452;27;20719;-71
2024/01/15 08:24:17;;;;;;;4.03;0.52;;;1.70;88.00;;;;;;5145992;27;20062;-72
2024/01/15 08:26:45;;;;;;;8.93;0.83;;;1.70;88.00;;;;;;5138662;27;20039;-72
2024/01/15 08:29:12;;;;;;;6.53;0.73;;;1.70;88.00;;;;;;5146586;27;20057;-71
2024/01/15 08:31:39;;;;;;;9.98;0.65;;;1.70;88.00;;;;;;5148477;27;20127;-72
2024/01/15 08:34:06;;;;;;;8.82;1.08;;;1.70;88.00;;;;;;5162002;27;20062;-71
2024/01/15 08:36:35;;;;;;;5.97;0.70;;;1.80;87.90;;;;;;5138053;27;20107;-71
2024/01/15 08:39:03;;;;;;;10.17;1.07;;;1.80;87.70;;;;;;5140681;27;20126;-71
2024/01/15 08:41:34;;;;;;;6.00;0.40;;;1.80;87.70;;;;;;5136924;27;20050;-72
2024/01/15 08:44:01;;;;;;;6.20;0.50;;;1.80;87.70;;;;;;5140926;27;20148;-73
2024/01/15 08:46:28;;;;;;;6.18;0.75;;;1.80;87.70;;;;;;5145325;27;20055;-73
2024/01/15 08:48:55;;;;;;;8.57;1.25;;;1.80;87.70;;;;;;5161689;27;20141;-71
2024/01/15 08:51:22;;;;;;;6.97;0.43;;;1.80;87.70;;;;;;5162226;27;21073;-71
2024/01/15 08:53:49;;;;;;;8.75;0.70;;;1.80;87.60;;;;;;5141992;27;20162;-71
2024/01/15 08:56:16;;;;;;;4.22;0.30;;;1.80;87.60;;;;;;5145782;27;20051;-71
2024/01/15 08:58:46;;;;;;;3.58;0.60;;;1.80;87.70;;;;;;5143752;27;20078;-72
2024/01/15 09:01:13;;;;;;;5.05;0.35;;;1.80;87.70;;;;;;5140851;27;20051;-70
2024/01/15 09:03:41;;;;;;;10.00;1.10;;;1.80;87.60;;;;;;5165042;27;20133;-73
2024/01/15 09:06:09;;;;;;;9.75;1.10;;;1.80;87.60;;;;;;5145664;27;20141;-71
2024/01/15 09:08:36;;;;;;;12.32;1.38;;;1.80;87.50;;;;;;5142156;27;20130;-70
2024/01/15 09:11:04;;;;;;;8.20;1.10;;;1.90;87.60;;;;;;5139367;27;20053;-73
2024/01/15 09:13:31;;;;;;;6.93;0.73;;;1.90;87.50;;;;;;5165215;27;20050;-70
2024/01/15 09:15:59;;;;;;;8.13;0.97;;;1.90;87.50;;;;;;5142795;27;20046;-72
2024/01/15 09:18:26;;;;;;;8.27;0.80;;;1.90;87.50;;;;;;5159733;27;20048;-71
2024/01/15 09:20:54;;;;;;;9.40;1.02;;;1.90;87.50;;;;;;5143741;27;20053;-71
2024/01/15 09:23:20;;;;;;;7.07;1.00;;;1.90;87.50;;;;;;5161224;27;20130;-72
2024/01/15 09:25:48;;;;;;;6.38;0.77;;;1.90;87.60;;;;;;5161607;27;20077;-71
2024/01/15 09:28:15;;;;;;;8.50;0.97;;;1.90;87.70;;;;;;5139904;27;20059;-71
2024/01/15 09:30:42;;;;;;;7.35;0.60;;;1.90;87.60;;;;;;5125826;27;20046;-72
2024/01/15 09:33:10;;;;;;;8.05;1.30;;;1.90;87.70;;;;;;5144321;27;20147;-72
2024/01/15 09:35:38;;;;;;;7.82;0.95;;;2.00;87.60;;;;;;5141324;27;20528;-72
2024/01/15 09:38:05;;;;;;;9.55;0.90;;;2.00;87.50;;;;;;5147596;27;20749;-71
2024/01/15 09:40:34;;;;;;;6.83;0.50;;;2.00;87.60;;;;;;5165591;27;20054;-72
2024/01/15 09:43:02;;;;;;;8.85;0.55;;;2.00;87.60;;;;;;5144009;27;20062;-72
2024/01/15 09:45:30;;;;;;;4.70;0.60;;;2.00;87.60;;;;;;5144779;27;20057;-72
2024/01/15 09:47:57;;;;;;;9.02;0.65;;;2.00;87.80;;;;;;5140275;27;20058;-72
2024/01/15 09:50:26;;;;;;;3.30;0.28;;;2.00;87.70;;;;;;5136512;27;20055;-72
2024/01/15 09:52:53;;;;;;;5.07;0.60;;;2.00;87.80;;;;;;5140464;27;20088;-72
2024/01/15 09:55:20;;;;;;;4.68;0.40;;;2.10;87.90;;;;;;5125301;27;20915;-72
2024/01/15 09:57:48;;;;;;;7.00;0.80;;;2.10;88.00;;;;;;5126260;27;20083;-72
2024/01/15 10:00:18;;;;;;;4.57;0.50;;;2.10;88.10;;;;;;5139927;27;20764;-72
2024/01/15 10:02:45;;;;;;;6.53;0.80;;;2.20;88.00;;;;;;5143428;27;20100;-72
2024/01/15 10:05:12;;;;;;;3.37;0.57;;;2.20;87.80;;;;;;5138196;27;20051;-72
2024/01/15 10:07:41;;;;;;;8.20;0.90;;;2.20;87.60;;;;;;5130473;27;20088;-72
2024/01/15 10:10:08;;;;;;;4.32;0.40;;;2.30;87.50;;;;;;5162203;27;20524;-72
2024/01/15 10:12:36;;;;;;;6.20;0.73;;;2.30;87.30;;;;;;5148686;27;20913;-72
2024/01/15 10:15:04;;;;;;;6.22;0.98;;;2.30;87.10;;;;;;5148174;27;20074;-72
2024/01/15 10:17:31;;;;;;;3.40;0.47;;;2.30;87.00;;;;;;5146873;27;20188;-71
2024/01/15 10:19:58;;;;;;;6.85;1.08;;;2.30;86.90;;;;;;5148406;27;20051;-73
2024/01/15 10:22:26;;;;;;;6.93;0.55;;;2.30;86.90;;;;;;5147984;27;20139;-72
2024/01/15 10:24:55;;;;;;;4.32;0.45;;;2.30;87.00;;;;;;5146333;27;20107;-72
2024/01/15 10:27:22;;;;;;;2.53;0.20;;;2.30;87.30;;;;;;5147314;27;20577;-73
2024/01/15 10:29:49;;;;;;;8.03;0.80;;;2.30;87.40;;;;;;5165222;27;20165;-72
2024/01/15 10:32:16;;;;;;;6.20;0.70;;;2.30;87.20;;;;;;5145462;27;20465;-72
2024/01/15 10:34:43;;;;;;;2.42;0.25;;;2.30;87.20;;;;;;5145829;27;20051;-73
2024/01/15 10:37:10;;;;;;;2.95;0.17;;;2.30;86.80;;;;;;5146869;27;21012;-72
2024/01/15 10:39:38;;;;;;;6.43;0.60;;;2.30;86.60;;;;;;5144430;27;20134;-72
2024/01/15 10:42:07;;;;;;;6.60;0.27;;;2.30;86.60;;;;;;5126790;27;20055;-72
2024/01/15 10:44:34;;;;;;;5.30;0.35;;;2.30;86.50;;;;;;5130645;27;20130;-73
2024/01/15 10:47:01;;;;;;;6.60;0.60;;;2.30;86.70;;;;;;5163542;27;20054;-72
2024/01/15 10:49:30;;;;;;;7.28;0.90;;;2.30;86.90;;;;;;5148772;27;20138;-73
2024/01/15 10:51:58;;;;;;;5.38;0.50;;;2.30;86.90;;;;;;5126805;27;20496;-72
2024/01/15 10:54:25;;;;;;;5.97;0.70;;;2.30;87.10;;;;;;5148245;27;20077;-72
2024/01/15 10:56:52;;;;;;;4.90;0.52;;;2.30;87.30;;;;;;5144513;27;20086;-72
2024/01/15 10:59:23;;;;;;;6.95;0.63;;;2.20;87.70;;;;;;5147952;27;20178;-72
2024/01/15 11:01:53;;;;;;;3.05;0.30;;;2.30;87.60;;;;;;5144754;27;20050;-72
2024/01/15 11:04:20;;;;;;;4.22;0.43;;;2.30;87.70;;;;;;5148571;27;20127;-73
2024/01/15 11:06:51;;;;;;;4.90;0.60;;;2.30;87.50;;;;;;5128441;27;20078;-72
2024/01/15 11:09:18;;;;;;;4.13;0.40;;;2.40;87.10;;;;;;5143544;27;20158;-72
2024/01/15 11:11:47;;;;;;;2.83;0.30;;;2.30;87.20;;;;;;5143505;27;20936;-72
2024/01/15 11:14:36;;;;;;;3.97;0.50;;;2.40;87.00;;;;;;5143410;27;20042;-73
2024/01/15 11:17:03;;;;;;;2.20;0.10;;;2.40;86.80;;;;;;5143667;27;20816;-72
2024/01/15 11:19:37;;;;;;;3.03;0.30;;;2.40;86.80;;;;;;5151114;27;20047;-72
2024/01/15 11:22:05;;;;;;;2.80;0.13;;;2.50;86.70;;;;;;5159805;27;20059;-72
2024/01/15 11:24:40;;;;;;;1.90;0.20;;;2.50;86.00;;;;;;5140294;27;20680;-72
2024/01/15 11:27:08;;;;;;;1.98;0.10;;;2.50;85.90;;;;;;5161581;27;20080;-73
2024/01/15 11:29:38;;;;;;;1.30;0.10;;;2.50;85.80;;;;;;5163223;27;20057;-72
2024/01/15 11:32:06;;;;;;;4.47;0.40;;;2.50;85.10;;;;;;5142024;27;20143;-72
2024/01/15 11:34:57;;;;;;;2.17;0.28;;;2.50;84.70;;;;;;5143708;27;20082;-72
2024/01/15 11:37:26;;;;;;;3.83;0.30;;;2.50;84.40;;;;;;5141321;27;20051;-73
2024/01/15 11:39:54;;;;;;;1.90;0.20;;;2.50;84.40;;;;;;5126684;27;20130;-73
2024/01/15 11:42:22;;;;;;;2.42;0.30;;;2.50;84.50;;;;;;5143923;27;20072;-73
2024/01/15 11:44:51;;;;;;;1.93;0.17;;;2.50;84.60;;;;;;5143637;27;20080;-73
2024/01/15 11:47:43;;;;;;;0.90;0.10;;;2.50;84.80;;;;;;5163851;27;20059;-73
2024/01/15 11:50:11;;;;;;;2.15;0.10;;;2.50;85.00;;;;;;5163505;27;20979;-73
2024/01/15 11:52:40;;;;;;;2.60;0.30;;;2.50;84.80;;;;;;5163866;27;20549;-73
2024/01/15 11:55:13;;;;;;;1.77;0.20;;;2.60;85.10;;;;;;5141691;27;20057;-73
2024/01/15 11:57:46;;;;;;;1.63;0.10;;;2.60;85.00;;;;;;5147179;27;20083;-73
2024/01/15 12:00:16;;;;;;;4.65;0.30;;;2.60;85.30;;;;;;5166450;27;20043;-72
2024/01/15 12:02:44;;;;;;;4.95;1.23;;;2.60;85.40;;;;;;5149309;27;20055;-73
2024/01/15 12:05:12;;;;;;;5.20;0.60;;;2.60;85.50;;;;;;5142687;27;20583;-72
2024/01/15 12:07:40;;;;;;;5.15;0.45;;;2.60;85.60;;;;;;5147610;27;20146;-72
2024/01/15 12:10:11;;;;;;;6.67;0.47;;;2.50;85.70;;;;;;5144410;27;20077;-72
2024/01/15 12:12:54;;;;;;;2.38;0.25;;;2.40;86.10;;;;;;5119422;27;20047;-72
2024/01/15 12:15:23;;;;;;;3.70;0.30;;;2.40;86.30;;;;;;5124961;27;20704;-72
2024/01/15 12:17:50;;;;;;;4.15;0.38;;;2.40;86.50;;;;;;5143420;27;20227;-72
2024/01/15 12:20:18;;;;;;;2.58;0.20;;;2.40;86.50;;;;;;5145572;27;20059;-72
2024/01/15 12:22:47;;;;;;;2.17;0.20;;;2.40;86.00;;;;;;5146371;27;20047;-72
2024/01/15 12:25:14;;;;;;;3.35;0.20;;;2.30;86.00;;;;;;5109690;27;20485;-72
2024/01/15 12:27:41;;;;;;;3.35;0.30;;;2.30;86.00;;;;;;5139123;27;20713;-73
2024/01/15 12:30:11;;;;;;;2.08;0.10;;;2.30;85.80;;;;;;5146033;27;20100;-73
2024/01/15 12:32:41;;;;;;;1.13;0.20;;;2.30;85.80;;;;;;5140524;27;20078;-73
2024/01/15 12:35:08;;;;;;;2.50;0.20;;;2.20;85.80;;;;;;5164105;27;20074;-73
2024/01/15 12:37:37;;;;;;;5.68;0.50;;;2.20;85.80;;;;;;5160434;27;20157;-73
2024/01/15 12:40:06;;;;;;;2.50;0.20;;;2.20;85.50;;;;;;5142354;27;20047;-73
2024/01/15 12:42:33;;;;;;;3.58;0.28;;;2.10;85.30;;;;;;5125942;27;20053;-72
2024/01/15 12:45:01;;;;;;;1.58;0.10;;;2.00;85.30;;;;;;5146013;27;20050;-72
2024/01/15 12:47:29;;;;;;;1.43;0.10;;;2.00;85.50;;;;;;5145776;27;20054;-72
2024/01/15 12:49:59;;;;;;;2.72;0.20;;;2.00;85.90;;;;;;5160728;27;20074;-76
2024/01/15 12:52:28;;;;;;;5.70;0.40;;;1.90;85.80;;;;;;5141023;27;20073;-72
2024/01/15 12:54:55;;;;;;;3.58;0.40;;;1.90;85.90;;;;;;5128927;27;20130;-72
2024/01/15 12:57:22;;;;;;;6.40;0.47;;;1.90;86.00;;;;;;5144390;27;20134;-72
2024/01/15 12:59:50;;;;;;;5.63;0.50;;;1.90;86.10;;;;;;5142897;27;20141;-70